createdAt,value
2017-06-23T09:52:37.897Z,990.45
2017-06-23T09:53:37.377Z,990.48
2017-06-23T09:54:37.317Z,990.49
2017-06-23T09:55:37.333Z,990.48
2017-06-23T09:56:37.157Z,990.5
2017-06-23T09:57:37.162Z,990.47
2017-06-23T09:58:37.185Z,990.53
2017-06-23T09:59:37.434Z,990.48
2017-06-23T10:00:37.441Z,990.48
2017-06-23T10:01:37.471Z,990.44
2017-06-23T10:02:37.224Z,990.53
2017-06-23T10:03:37.438Z,990.52
2017-06-23T10:04:37.429Z,990.49
2017-06-23T10:05:37.397Z,990.54
2017-06-23T10:06:37.439Z,990.51
2017-06-23T10:07:37.384Z,990.54
2017-06-23T10:08:37.451Z,990.47
2017-06-23T10:09:37.447Z,990.42
2017-06-23T10:10:37.472Z,990.54
2017-06-23T10:11:37.480Z,990.55
2017-06-23T10:12:37.439Z,990.54
2017-06-23T10:13:37.458Z,990.52
2017-06-23T10:14:37.496Z,990.53
2017-06-23T10:15:37.498Z,990.52
2017-06-23T10:16:37.500Z,990.5
2017-06-23T10:17:37.441Z,990.48
2017-06-23T10:18:37.567Z,990.52
2017-06-23T10:19:37.316Z,990.5
2017-06-23T10:20:37.323Z,990.56
2017-06-23T10:21:37.331Z,990.52
2017-06-23T10:22:37.337Z,990.52
2017-06-23T10:23:37.359Z,990.51
2017-06-23T10:24:37.354Z,990.6
2017-06-23T10:25:37.417Z,990.53
2017-06-23T10:26:37.368Z,990.6
2017-06-23T10:27:37.377Z,990.57
2017-06-23T10:28:37.382Z,990.6
2017-06-23T10:29:37.390Z,990.47
2017-06-23T10:30:37.397Z,990.52
2017-06-23T10:31:37.405Z,990.49
2017-06-23T10:32:37.412Z,990.48
2017-06-23T10:33:37.455Z,990.57
2017-06-23T10:34:37.427Z,990.53
2017-06-23T10:35:37.435Z,990.52
2017-06-23T10:36:37.443Z,990.52
2017-06-23T10:37:37.449Z,990.5
2017-06-23T11:43:31.818Z,990.42
2017-06-23T11:44:31.829Z,990.35
2017-06-23T11:45:31.839Z,990.33
2017-06-23T11:46:31.844Z,990.34
2017-06-23T11:51:14.506Z,990.33
2017-06-23T11:52:14.450Z,990.25
2017-06-23T11:53:14.448Z,990.25
2017-06-23T11:54:14.997Z,990.18
2017-06-23T11:55:14.536Z,990.13
2017-06-23T11:56:14.478Z,990.17
2017-06-23T11:57:14.480Z,990.15
2017-06-23T11:58:14.486Z,990.09
2017-06-23T11:59:14.494Z,990.12
2017-06-23T12:00:14.664Z,990.22
2017-06-23T12:01:14.561Z,990.14
2017-06-23T12:02:14.520Z,990.08
2017-06-23T12:03:14.529Z,990.18
2017-06-23T12:04:14.536Z,990.11
2017-06-23T12:05:14.670Z,990.15
2017-06-23T12:06:14.628Z,990.09
2017-06-23T12:07:14.561Z,990.1
2017-06-23T12:08:14.575Z,990.14
2017-06-23T12:09:14.590Z,990.12
2017-06-23T12:10:14.677Z,990.13
2017-06-23T12:11:14.603Z,990.17
2017-06-23T12:12:14.602Z,990.23
2017-06-23T12:13:14.609Z,990.21
2017-06-23T12:14:14.617Z,990.16
2017-06-23T12:15:14.903Z,990.14
2017-06-23T12:16:14.684Z,990.14
2017-06-23T12:17:14.655Z,990.14
2017-06-23T12:18:14.649Z,990.08
2017-06-23T12:19:14.657Z,990.12
2017-06-23T12:20:14.838Z,990.12
2017-06-23T12:21:14.674Z,990.09
2017-06-23T12:22:14.682Z,990.2
2017-06-23T12:23:14.691Z,990.01
2017-06-23T12:24:14.697Z,990.21
2017-06-23T12:25:14.741Z,990.18
2017-06-23T12:26:14.715Z,990.18
2017-06-23T12:27:14.727Z,990.16
2017-06-23T12:28:14.730Z,990.09
2017-06-23T12:29:14.741Z,990.09
2017-06-23T12:30:14.914Z,990.09
2017-06-23T12:31:16.607Z,990.1
2017-06-23T12:32:14.760Z,990.13
2017-06-23T12:33:14.768Z,990.16
2017-06-23T12:34:14.776Z,990.12
2017-06-23T12:35:14.988Z,990.09
2017-06-23T12:36:14.792Z,990.08
2017-06-23T12:37:14.800Z,990.13
2017-06-23T12:38:14.809Z,990.07
2017-06-23T12:39:14.817Z,990.11
2017-06-23T12:40:15.119Z,990.09
2017-06-23T12:41:14.833Z,990.16
2017-06-23T12:42:14.840Z,990.16
2017-06-23T12:43:14.847Z,990.2
2017-06-23T12:44:14.855Z,990.09
2017-06-23T12:45:15.111Z,990.14
2017-06-23T12:46:14.872Z,990.19
2017-06-23T12:47:14.882Z,990.12
2017-06-23T12:48:14.895Z,990.14
2017-06-23T12:49:14.896Z,990.14
2017-06-23T12:50:15.071Z,990.21
2017-06-23T12:51:14.911Z,990.16
2017-06-23T12:52:14.919Z,990.21
2017-06-23T12:53:14.926Z,990.18
2017-06-23T12:54:14.935Z,990.21
2017-06-23T12:55:15.227Z,990.22
2017-06-23T12:56:14.975Z,990.24
2017-06-23T12:57:14.960Z,990.24
2017-06-23T12:58:14.968Z,990.23
2017-06-23T12:59:14.976Z,990.26
2017-06-23T13:00:15.220Z,990.22
2017-06-23T13:01:14.994Z,990.21
2017-06-23T13:02:15.000Z,990.09
2017-06-23T13:03:15.008Z,990.13
2017-06-23T13:04:15.016Z,990.17
2017-06-23T13:05:15.025Z,990.21
2017-06-23T13:06:15.033Z,990.16
2017-06-23T13:07:15.041Z,990.15
2017-06-23T13:08:15.050Z,990.05
2017-06-23T13:09:15.057Z,990.18
2017-06-23T13:10:15.163Z,990.25
2017-06-23T13:11:15.074Z,990.21
2017-06-23T13:12:15.081Z,990.19
2017-06-23T13:13:15.092Z,990.16
2017-06-23T13:14:15.097Z,990.1
2017-06-23T13:15:15.225Z,990.07
2017-06-23T13:16:15.118Z,990.16
2017-06-23T13:18:15.130Z,990.15
2017-06-23T13:19:15.138Z,990.15
2017-06-23T13:20:15.169Z,990.3
2017-06-23T13:21:15.155Z,990.2
2017-06-23T13:22:15.162Z,990.2
2017-06-23T13:23:15.182Z,990.23
2017-06-23T13:24:15.182Z,990.19
2017-06-23T13:25:15.186Z,990.15
2017-06-23T13:26:15.226Z,990.14
2017-06-23T13:27:15.203Z,990.24
2017-06-23T13:28:15.210Z,990.1
2017-06-23T13:29:15.218Z,990.19
2017-06-23T13:30:15.227Z,990.18
2017-06-23T13:31:15.240Z,990.16
2017-06-23T13:32:15.245Z,990.28
2017-06-23T13:33:15.250Z,990.24
2017-06-23T13:34:15.257Z,990.27
2017-06-23T13:35:15.395Z,990.2
2017-06-23T13:36:15.274Z,990.26
2017-06-23T13:37:15.285Z,990.31
2017-06-23T13:38:15.290Z,990.25
2017-06-23T13:39:15.298Z,990.25
2017-06-23T13:40:15.306Z,990.26
2017-06-23T13:41:15.314Z,990.21
2017-06-23T13:42:15.322Z,990.19
2017-06-23T13:43:15.330Z,990.19
2017-06-23T13:44:15.338Z,990.29
2017-06-23T13:45:15.345Z,990.19
2017-06-23T13:46:15.374Z,990.21
2017-06-23T13:47:15.362Z,990.21
2017-06-23T13:48:15.368Z,990.21
2017-06-23T13:49:15.378Z,990.24
2017-06-23T13:50:15.385Z,990.26
2017-06-23T13:51:15.393Z,990.19
2017-06-23T13:52:15.410Z,990.18
2017-06-23T13:53:15.414Z,990.17
2017-06-23T13:54:15.418Z,990.21
2017-06-23T13:55:15.474Z,990.15
2017-06-23T13:56:15.432Z,990.15
2017-06-23T13:57:15.442Z,990.18
2017-06-23T13:58:15.449Z,990.22
2017-06-23T13:59:15.458Z,990.27
2017-06-23T14:00:15.466Z,990.34
2017-06-23T14:01:15.473Z,990.33
2017-06-23T14:02:15.580Z,990.36
2017-06-23T14:03:15.492Z,990.23
2017-06-23T14:04:15.496Z,990.27
2017-06-23T14:05:15.505Z,990.29
2017-06-23T14:06:15.512Z,990.25
2017-06-23T14:07:15.520Z,990.25
2017-06-23T14:08:15.528Z,990.22
2017-06-23T14:09:15.536Z,990.04
2017-06-23T14:10:15.547Z,990.22
2017-06-23T14:11:15.554Z,990.22
2017-06-23T14:12:15.560Z,990.21
2017-06-23T14:13:15.579Z,990.11
2017-06-23T14:14:15.575Z,990.09
2017-06-23T14:15:15.583Z,990.14
2017-06-23T14:16:15.593Z,990.17
2017-06-23T14:17:15.703Z,990.23
2017-06-23T14:18:15.610Z,990.22
2017-06-23T14:19:15.615Z,990.25
2017-06-23T14:20:15.624Z,990.25
2017-06-23T14:21:15.631Z,990.21
2017-06-23T14:22:15.639Z,990.14
2017-06-23T14:23:15.648Z,990.16
2017-06-23T14:24:15.653Z,990.14
2017-06-23T14:25:15.668Z,990.14
2017-06-23T14:26:15.673Z,990.15
2017-06-23T14:27:15.679Z,990.16
2017-06-23T14:28:15.684Z,990.12
2017-06-23T14:29:15.693Z,990.22
2017-06-23T14:30:15.965Z,990.2
2017-06-23T14:31:15.710Z,990.15
2017-06-23T14:32:15.718Z,990.28
2017-06-23T14:33:15.725Z,990.16
2017-06-23T14:34:15.735Z,990.27
2017-06-23T14:35:15.743Z,990.19
2017-06-23T14:36:15.751Z,990.26
2017-06-23T14:37:15.758Z,990.21
2017-06-23T14:38:15.766Z,990.16
2017-06-23T14:39:15.772Z,990.17
2017-06-23T14:40:15.818Z,990.15
2017-06-23T14:41:15.790Z,990.22
2017-06-23T14:42:15.801Z,990.17
2017-06-23T14:43:15.805Z,990.25
2017-06-23T14:44:15.816Z,990.14
2017-06-23T14:45:15.827Z,990.16
2017-06-23T14:46:15.827Z,990.1
2017-06-23T14:47:15.837Z,990.09
2017-06-23T14:48:15.845Z,990.17
2017-06-23T14:49:15.851Z,990.07
2017-06-23T14:50:15.859Z,990.1
2017-06-23T14:51:15.869Z,990.14
2017-06-23T14:52:15.875Z,990.23
2017-06-23T14:53:15.883Z,990.29
2017-06-23T14:54:15.891Z,990.25
2017-06-23T14:55:15.898Z,990.25
2017-06-23T14:56:15.908Z,990.19
2017-06-23T14:57:15.914Z,990.12
2017-06-23T14:58:15.924Z,990.14
2017-06-23T14:59:15.932Z,990.14
2017-06-23T15:00:15.938Z,990.12
2017-06-23T15:01:15.946Z,990.13
2017-06-23T15:02:15.958Z,990.07
2017-06-23T15:03:15.964Z,990.17
2017-06-23T15:04:15.971Z,990.11
2017-06-23T15:05:15.979Z,990.04
2017-06-23T15:06:15.990Z,990.09
2017-06-23T15:07:15.996Z,990.08
2017-06-23T15:08:16.003Z,990.04
2017-06-23T15:09:16.012Z,990.08
2017-06-23T15:10:16.020Z,990.17
2017-06-23T15:11:16.042Z,990.11
2017-06-23T15:12:16.037Z,990.08
2017-06-23T15:13:16.049Z,990.13
2017-06-23T15:14:16.052Z,990.02
2017-06-23T15:15:16.060Z,990.06
2017-06-23T15:16:16.068Z,989.97
2017-06-23T15:17:16.076Z,990.01
2017-06-23T15:18:16.136Z,990.05
2017-06-23T15:19:16.092Z,990.07
2017-06-23T15:20:16.100Z,990.03
2017-06-23T15:21:16.112Z,990.04
2017-06-23T15:22:16.114Z,990.13
2017-06-23T15:23:16.124Z,990.05
2017-06-23T15:24:16.134Z,990.03
2017-06-23T15:25:16.139Z,990.04
2017-06-23T15:26:16.153Z,990.05
2017-06-23T15:27:16.156Z,990.07
2017-06-23T15:28:16.163Z,990.02
2017-06-23T15:29:16.169Z,989.97
2017-06-23T15:37:05.705Z,990
2017-06-23T15:38:05.716Z,990
2017-06-23T15:39:05.724Z,990
2017-06-23T15:40:05.724Z,990
2017-06-23T15:41:05.738Z,990.08
2017-06-23T15:42:05.740Z,990.06
2017-06-23T15:43:05.747Z,990.05
2017-06-23T15:44:05.755Z,990.02
2017-06-23T15:45:05.763Z,990.08
2017-06-23T15:46:05.776Z,990.05
2017-06-23T15:47:07.384Z,989.99
2017-06-23T15:48:05.783Z,990.06
2017-06-23T15:49:05.792Z,990.03
2017-06-23T15:50:05.799Z,990.08
2017-06-23T15:51:05.806Z,990.1
2017-06-23T15:52:05.813Z,990.04
2017-06-23T15:53:05.821Z,990.1
2017-06-23T15:54:05.829Z,990.09
2017-06-23T15:55:05.838Z,990.04
2017-06-23T15:56:05.843Z,990.06
2017-06-23T15:57:05.851Z,990.04
2017-06-23T15:58:05.862Z,990.01
2017-06-23T15:59:05.864Z,990
2017-06-23T16:00:05.873Z,990.01
2017-06-23T16:01:05.881Z,990
2017-06-23T16:02:05.887Z,990.03
2017-06-23T16:03:06.026Z,990.08
2017-06-23T16:04:05.902Z,989.98
2017-06-23T16:05:05.910Z,989.98
2017-06-23T16:06:05.915Z,990.07
2017-06-23T16:07:05.923Z,990.01
2017-06-23T16:08:05.930Z,990.02
2017-06-23T16:09:05.939Z,990.02
2017-06-23T16:10:05.945Z,990.03
2017-06-23T16:11:05.973Z,990.05
2017-06-23T16:12:05.959Z,990.06
2017-06-23T16:13:05.966Z,990.05
2017-06-23T16:14:05.973Z,990.08
2017-06-23T16:15:05.988Z,990.06
2017-06-23T16:16:05.987Z,990.03
2017-06-23T16:17:05.994Z,990.02
2017-06-23T16:18:06.001Z,990.02
2017-06-23T16:19:06.007Z,990.02
2017-06-23T16:20:06.014Z,990.02
2017-06-23T16:21:06.022Z,989.96
2017-06-23T16:22:06.032Z,989.96
2017-06-23T16:23:06.038Z,990.05
2017-06-23T16:24:06.042Z,990.07
2017-06-23T16:25:06.050Z,990.04
2017-06-23T16:26:06.058Z,990.11
2017-06-23T16:27:06.063Z,990.08
2017-06-23T16:28:06.071Z,990.04
2017-06-23T16:29:06.089Z,990.06
2017-06-23T16:30:06.088Z,990
2017-06-23T16:31:06.092Z,990.02
2017-06-23T16:32:06.101Z,989.98
2017-06-23T16:33:06.106Z,990.02
2017-06-23T16:34:06.115Z,990.02
2017-06-23T16:35:06.120Z,989.97
2017-06-23T16:36:06.127Z,989.96
2017-06-23T16:37:06.135Z,990.03
2017-06-23T16:38:06.150Z,989.96
2017-06-23T16:39:06.163Z,989.98
2017-06-23T16:40:06.155Z,989.98
2017-06-23T16:41:06.161Z,989.95
2017-06-23T16:42:06.183Z,990.01
2017-06-23T16:43:06.178Z,989.98
2017-06-23T16:44:06.182Z,989.97
2017-06-23T16:45:06.206Z,989.96
2017-06-23T16:46:06.219Z,989.98
2017-06-23T16:47:06.205Z,989.99
2017-06-23T16:48:06.212Z,989.98
2017-06-23T16:49:06.217Z,989.99
2017-06-23T16:50:06.250Z,989.97
2017-06-23T16:51:06.246Z,989.96
2017-06-23T16:52:06.240Z,989.96
2017-06-23T16:53:06.246Z,990.03
2017-06-23T16:54:06.254Z,989.98
2017-06-23T16:55:06.273Z,990.08
2017-06-23T16:56:06.271Z,990.05
2017-06-23T16:57:06.274Z,990.04
2017-06-23T16:58:06.282Z,990.17
2017-06-23T16:59:06.288Z,990.11
2017-06-23T17:00:06.294Z,990.09
2017-06-23T17:01:06.301Z,990.18
2017-06-23T17:02:06.308Z,990.1
2017-06-23T17:03:06.315Z,990.1
2017-06-23T17:04:06.349Z,990.12
2017-06-23T17:05:06.330Z,990.15
2017-06-23T17:06:06.359Z,990.07
2017-06-23T17:07:06.342Z,990.11
2017-06-23T17:08:06.348Z,990.07
2017-06-23T17:09:06.355Z,990.09
2017-06-23T17:10:06.362Z,990.07
2017-06-23T17:11:06.369Z,990.11
2017-06-23T17:12:06.376Z,990.15
2017-06-23T17:13:06.383Z,990.15
2017-06-23T17:14:06.391Z,990.18
2017-06-23T17:15:06.397Z,990.16
2017-06-23T17:16:06.402Z,990.13
2017-06-23T17:17:06.409Z,990.2
2017-06-23T17:18:06.418Z,990.18
2017-06-23T17:19:06.422Z,990.14
2017-06-23T17:20:06.443Z,990.24
2017-06-23T17:21:06.436Z,990.26
2017-06-23T17:22:06.441Z,990.28
2017-06-23T17:23:06.499Z,990.27
2017-06-23T17:24:06.455Z,990.22
2017-06-23T17:25:06.467Z,990.26
2017-06-23T17:26:06.467Z,990.27
2017-06-23T17:27:06.476Z,990.25
2017-06-23T17:28:06.481Z,990.28
2017-06-23T17:29:06.493Z,990.21
2017-06-23T17:30:06.510Z,990.29
2017-06-23T17:31:06.504Z,990.29
2017-06-23T17:32:06.508Z,990.29
2017-06-23T17:33:06.514Z,990.28
2017-06-23T17:34:06.521Z,990.25
2017-06-23T17:35:06.527Z,990.27
2017-06-23T17:36:06.534Z,990.27
2017-06-23T17:37:06.544Z,990.24
2017-06-23T17:38:06.852Z,990.23
2017-06-23T17:39:06.553Z,990.23
2017-06-23T17:40:06.559Z,990.19
2017-06-23T17:41:06.566Z,990.25
2017-06-23T17:42:06.573Z,990.24
2017-06-23T17:43:06.580Z,990.2
2017-06-23T17:44:06.584Z,990.21
2017-06-23T17:45:06.597Z,990.23
2017-06-23T17:46:06.598Z,990.18
2017-06-23T17:47:06.608Z,990.21
2017-06-23T17:48:06.611Z,990.23
2017-06-23T17:49:06.618Z,990.18
2017-06-23T17:50:06.691Z,990.25
2017-06-23T17:51:06.630Z,990.17
2017-06-23T17:52:06.637Z,990.28
2017-06-23T17:53:06.694Z,990.26
2017-06-23T17:54:06.651Z,990.26
2017-06-23T17:55:06.673Z,990.24
2017-06-23T17:56:06.667Z,990.26
2017-06-23T17:57:06.671Z,990.24
2017-06-23T17:58:06.676Z,990.23
2017-06-23T17:59:06.682Z,990.25
2017-06-23T18:00:06.688Z,990.31
2017-06-23T18:01:06.695Z,990.34
2017-06-23T18:02:06.708Z,990.33
2017-06-23T18:03:06.709Z,990.35
2017-06-23T18:04:06.715Z,990.33
2017-06-23T18:05:06.722Z,990.37
2017-06-23T18:06:06.729Z,990.35
2017-06-23T18:07:06.961Z,990.36
2017-06-23T18:08:12.346Z,990.42
2017-06-23T18:09:06.746Z,990.45
2017-06-23T18:10:06.753Z,990.44
2017-06-23T18:11:06.780Z,990.51
2017-06-23T18:12:06.767Z,990.49
2017-06-23T18:13:06.770Z,990.5
2017-06-23T18:14:06.777Z,990.49
2017-06-23T18:15:06.814Z,990.5
2017-06-23T18:16:06.790Z,990.48
2017-06-23T18:17:06.796Z,990.53
2017-06-23T18:18:06.802Z,990.51
2017-06-23T18:19:06.809Z,990.55
2017-06-23T18:20:06.856Z,990.56
2017-06-23T18:21:06.860Z,990.56
2017-06-23T18:22:06.833Z,990.55
2017-06-23T18:23:06.836Z,990.56
2017-06-23T18:24:06.841Z,990.6
2017-06-23T18:25:06.847Z,990.65
2017-06-23T18:26:06.852Z,990.66
2017-06-23T18:27:06.858Z,990.65
2017-06-23T18:28:06.864Z,990.67
2017-06-23T18:29:06.873Z,990.68
2017-06-23T18:30:06.879Z,990.7
2017-06-23T18:31:06.891Z,990.68
2017-06-23T18:32:06.890Z,990.7
2017-06-23T18:33:06.895Z,990.68
2017-06-23T18:34:06.904Z,990.69
2017-06-23T18:35:06.907Z,990.65
2017-06-23T18:36:06.916Z,990.65
2017-06-23T18:37:06.919Z,990.69
2017-06-23T18:38:06.925Z,990.71
2017-06-23T18:39:06.932Z,990.71
2017-06-23T18:40:06.937Z,990.74
2017-06-23T18:41:06.943Z,990.68
2017-06-23T18:42:06.968Z,990.68
2017-06-23T18:43:06.963Z,990.68
2017-06-23T18:44:06.962Z,990.69
2017-06-23T18:45:06.967Z,990.73
2017-06-23T18:46:06.973Z,990.76
2017-06-23T18:47:06.978Z,990.74
2017-06-23T18:48:06.986Z,990.72
2017-06-23T18:49:06.991Z,990.74
2017-06-23T18:50:06.995Z,990.74
2017-06-23T18:51:07.002Z,990.73
2017-06-23T18:52:07.008Z,990.73
2017-06-23T18:53:07.014Z,990.75
2017-06-23T18:54:07.070Z,990.71
2017-06-23T18:55:07.050Z,990.78
2017-06-23T18:56:07.032Z,990.75
2017-06-23T18:57:07.037Z,990.83
2017-06-23T18:58:07.042Z,990.79
2017-06-23T18:59:07.049Z,990.8
2017-06-23T19:00:07.071Z,990.81
2017-06-23T19:01:07.061Z,990.8
2017-06-23T19:02:07.066Z,990.79
2017-06-23T19:03:07.073Z,990.86
2017-06-23T19:04:07.077Z,990.84
2017-06-23T19:05:07.083Z,990.82
2017-06-23T19:06:07.089Z,990.84
2017-06-23T19:07:07.109Z,990.84
2017-06-23T19:08:07.100Z,990.82
2017-06-23T19:09:08.300Z,990.81
2017-06-23T19:10:07.117Z,990.78
2017-06-23T19:11:07.118Z,990.8
2017-06-23T19:12:07.124Z,990.82
2017-06-23T19:13:07.129Z,990.79
2017-06-23T19:14:07.139Z,990.85
2017-06-23T19:15:07.213Z,990.82
2017-06-23T19:16:07.146Z,990.85
2017-06-23T19:17:07.152Z,990.81
2017-06-23T19:18:07.158Z,990.83
2017-06-23T19:19:07.162Z,990.89
2017-06-23T19:20:07.255Z,990.9
2017-06-23T19:21:07.178Z,990.91
2017-06-23T19:22:07.182Z,990.91
2017-06-23T19:23:07.185Z,990.96
2017-06-23T19:24:07.190Z,990.93
2017-06-23T19:25:07.264Z,990.97
2017-06-23T19:26:07.201Z,990.99
2017-06-23T19:27:07.207Z,991.01
2017-06-23T19:28:07.222Z,991.02
2017-06-23T19:29:07.221Z,991
2017-06-23T19:30:07.299Z,990.99
2017-06-23T19:31:07.229Z,991.03
2017-06-23T19:32:07.235Z,991.03
2017-06-23T19:33:07.241Z,991.08
2017-06-23T19:34:07.247Z,991.04
2017-06-23T19:35:07.315Z,991.03
2017-06-23T19:36:07.257Z,991.05
2017-06-23T19:37:07.270Z,991.06
2017-06-23T19:38:07.268Z,991.11
2017-06-23T19:39:07.275Z,991.09
2017-06-23T19:40:07.293Z,991.09
2017-06-23T19:41:07.285Z,991.14
2017-06-23T19:42:07.291Z,991.14
2017-06-23T19:43:07.294Z,991.11
2017-06-23T19:44:07.301Z,991.2
2017-06-23T19:45:07.306Z,991.18
2017-06-23T19:46:07.311Z,991.22
2017-06-23T19:47:07.316Z,991.25
2017-06-23T19:48:07.321Z,991.25
2017-06-23T19:49:07.330Z,991.24
2017-06-23T19:50:07.335Z,991.26
2017-06-23T19:51:07.339Z,991.29
2017-06-23T19:52:07.365Z,991.28
2017-06-23T19:53:07.347Z,991.34
2017-06-23T19:54:07.353Z,991.36
2017-06-23T19:55:09.134Z,991.43
2017-06-23T19:56:07.364Z,991.45
2017-06-23T19:57:07.370Z,991.44
2017-06-23T19:58:07.375Z,991.45
2017-06-23T19:59:07.379Z,991.46
2017-06-23T20:00:07.388Z,991.49
2017-06-23T20:01:07.413Z,991.5
2017-06-23T20:02:07.397Z,991.5
2017-06-23T20:03:07.402Z,991.5
2017-06-23T20:04:07.406Z,991.56
2017-06-23T20:05:07.456Z,991.55
2017-06-23T20:06:07.420Z,991.59
2017-06-23T20:07:07.424Z,991.58
2017-06-23T20:08:07.432Z,991.61
2017-06-23T20:09:07.432Z,991.65
2017-06-23T20:10:07.438Z,991.62
2017-06-23T20:11:07.442Z,991.65
